sensor_id;sensor_type;location;lat;lon;timestamp;P1;durP1;ratioP1;P2;durP2;ratioP2
44304;SDS011;30019;50.576;8.568;2022-12-20T00:01:51;94.55;;;40.05;;
44304;SDS011;30019;50.576;8.568;2022-12-20T00:04:17;93.07;;;41.25;;
44304;SDS011;30019;50.576;8.568;2022-12-20T00:06:43;91.45;;;38.10;;
44304;SDS011;30019;50.576;8.568;2022-12-20T00:09:08;84.18;;;36.38;;
44304;SDS011;30019;50.576;8.568;2022-12-20T00:11:37;73.57;;;34.25;;
44304;SDS011;30019;50.576;8.568;2022-12-20T00:14:04;74.05;;;34.88;;
44304;SDS011;30019;50.576;8.568;2022-12-20T00:16:29;74.57;;;33.85;;
44304;SDS011;30019;50.576;8.568;2022-12-20T00:18:56;71.40;;;34.15;;
44304;SDS011;30019;50.576;8.568;2022-12-20T00:21:23;73.53;;;34.47;;
44304;SDS011;30019;50.576;8.568;2022-12-20T00:23:50;78.43;;;34.10;;
44304;SDS011;30019;50.576;8.568;2022-12-20T00:26:18;82.70;;;35.13;;
44304;SDS011;30019;50.576;8.568;2022-12-20T00:28:45;74.87;;;34.75;;
44304;SDS011;30019;50.576;8.568;2022-12-20T00:31:12;73.47;;;34.47;;
44304;SDS011;30019;50.576;8.568;2022-12-20T00:33:40;74.20;;;35.00;;
44304;SDS011;30019;50.576;8.568;2022-12-20T00:36:08;70.90;;;33.97;;
44304;SDS011;30019;50.576;8.568;2022-12-20T00:38:34;73.72;;;33.83;;
44304;SDS011;30019;50.576;8.568;2022-12-20T00:43:30;68.87;;;33.30;;
44304;SDS011;30019;50.576;8.568;2022-12-20T00:45:56;77.45;;;35.28;;
44304;SDS011;30019;50.576;8.568;2022-12-20T00:48:22;71.15;;;35.50;;
44304;SDS011;30019;50.576;8.568;2022-12-20T00:50:48;85.55;;;37.50;;
44304;SDS011;30019;50.576;8.568;2022-12-20T00:53:15;86.32;;;37.38;;
44304;SDS011;30019;50.576;8.568;2022-12-20T00:55:43;81.93;;;38.20;;
44304;SDS011;30019;50.576;8.568;2022-12-20T00:58:10;78.93;;;36.83;;
44304;SDS011;30019;50.576;8.568;2022-12-20T01:00:36;90.75;;;37.90;;
44304;SDS011;30019;50.576;8.568;2022-12-20T01:03:02;82.88;;;36.47;;
44304;SDS011;30019;50.576;8.568;2022-12-20T01:05:29;84.13;;;37.80;;
44304;SDS011;30019;50.576;8.568;2022-12-20T01:07:55;77.32;;;37.25;;
44304;SDS011;30019;50.576;8.568;2022-12-20T01:10:21;84.18;;;36.22;;
44304;SDS011;30019;50.576;8.568;2022-12-20T01:12:47;79.25;;;36.47;;
44304;SDS011;30019;50.576;8.568;2022-12-20T01:15:12;79.35;;;36.53;;
44304;SDS011;30019;50.576;8.568;2022-12-20T01:17:38;82.10;;;37.65;;
44304;SDS011;30019;50.576;8.568;2022-12-20T01:20:04;92.20;;;39.03;;
44304;SDS011;30019;50.576;8.568;2022-12-20T01:22:30;77.62;;;37.35;;
44304;SDS011;30019;50.576;8.568;2022-12-20T01:24:56;80.87;;;36.53;;
44304;SDS011;30019;50.576;8.568;2022-12-20T01:27:21;76.00;;;35.88;;
44304;SDS011;30019;50.576;8.568;2022-12-20T01:29:47;86.37;;;36.33;;
44304;SDS011;30019;50.576;8.568;2022-12-20T01:32:12;82.97;;;38.35;;
44304;SDS011;30019;50.576;8.568;2022-12-20T01:34:38;80.62;;;37.25;;
44304;SDS011;30019;50.576;8.568;2022-12-20T01:37:04;81.65;;;37.40;;
44304;SDS011;30019;50.576;8.568;2022-12-20T01:39:29;70.43;;;33.80;;
44304;SDS011;30019;50.576;8.568;2022-12-20T01:41:55;70.37;;;32.88;;
44304;SDS011;30019;50.576;8.568;2022-12-20T01:46:46;75.45;;;34.88;;
44304;SDS011;30019;50.576;8.568;2022-12-20T01:49:15;75.00;;;34.65;;
44304;SDS011;30019;50.576;8.568;2022-12-20T01:51:59;83.07;;;37.42;;
44304;SDS011;30019;50.576;8.568;2022-12-20T01:54:40;85.53;;;36.72;;
44304;SDS011;30019;50.576;8.568;2022-12-20T01:57:56;77.75;;;37.00;;
44304;SDS011;30019;50.576;8.568;2022-12-20T02:00:06;80.38;;;37.30;;
44304;SDS011;30019;50.576;8.568;2022-12-20T02:02:33;85.95;;;36.78;;
44304;SDS011;30019;50.576;8.568;2022-12-20T02:05:00;81.85;;;37.70;;
44304;SDS011;30019;50.576;8.568;2022-12-20T02:07:27;85.57;;;37.00;;
44304;SDS011;30019;50.576;8.568;2022-12-20T02:09:55;82.50;;;36.50;;
44304;SDS011;30019;50.576;8.568;2022-12-20T02:12:23;74.55;;;35.15;;
44304;SDS011;30019;50.576;8.568;2022-12-20T02:23:01;77.57;;;35.67;;
44304;SDS011;30019;50.576;8.568;2022-12-20T02:31:33;88.62;;;39.65;;
44304;SDS011;30019;50.576;8.568;2022-12-20T02:34:04;85.03;;;37.28;;
44304;SDS011;30019;50.576;8.568;2022-12-20T02:36:31;89.45;;;37.40;;
44304;SDS011;30019;50.576;8.568;2022-12-20T02:38:57;80.93;;;37.35;;
44304;SDS011;30019;50.576;8.568;2022-12-20T02:41:24;88.87;;;38.90;;
44304;SDS011;30019;50.576;8.568;2022-12-20T02:43:55;73.57;;;36.22;;
44304;SDS011;30019;50.576;8.568;2022-12-20T02:46:53;77.75;;;34.97;;
44304;SDS011;30019;50.576;8.568;2022-12-20T02:49:24;77.45;;;34.42;;
44304;SDS011;30019;50.576;8.568;2022-12-20T02:51:53;71.85;;;34.42;;
44304;SDS011;30019;50.576;8.568;2022-12-20T02:54:21;78.40;;;34.15;;
44304;SDS011;30019;50.576;8.568;2022-12-20T02:56:51;73.95;;;35.95;;
44304;SDS011;30019;50.576;8.568;2022-12-20T02:59:27;81.12;;;36.88;;
44304;SDS011;30019;50.576;8.568;2022-12-20T03:02:01;90.62;;;37.35;;
44304;SDS011;30019;50.576;8.568;2022-12-20T03:04:29;89.15;;;37.42;;
44304;SDS011;30019;50.576;8.568;2022-12-20T03:09:22;102.18;;;43.75;;
44304;SDS011;30019;50.576;8.568;2022-12-20T03:11:48;97.75;;;42.92;;
44304;SDS011;30019;50.576;8.568;2022-12-20T03:14:14;91.47;;;41.08;;
44304;SDS011;30019;50.576;8.568;2022-12-20T03:16:40;87.12;;;38.80;;
44304;SDS011;30019;50.576;8.568;2022-12-20T03:19:05;84.87;;;38.00;;
44304;SDS011;30019;50.576;8.568;2022-12-20T03:21:31;84.85;;;38.97;;
44304;SDS011;30019;50.576;8.568;2022-12-20T03:23:56;84.35;;;37.65;;
44304;SDS011;30019;50.576;8.568;2022-12-20T03:26:22;82.22;;;37.90;;
44304;SDS011;30019;50.576;8.568;2022-12-20T03:28:47;80.57;;;36.92;;
44304;SDS011;30019;50.576;8.568;2022-12-20T03:31:13;82.72;;;38.22;;
44304;SDS011;30019;50.576;8.568;2022-12-20T03:33:39;87.20;;;37.78;;
44304;SDS011;30019;50.576;8.568;2022-12-20T03:36:04;82.90;;;38.47;;
44304;SDS011;30019;50.576;8.568;2022-12-20T03:38:30;81.12;;;37.22;;
44304;SDS011;30019;50.576;8.568;2022-12-20T03:40:56;84.50;;;38.75;;
44304;SDS011;30019;50.576;8.568;2022-12-20T03:43:21;93.87;;;42.53;;
44304;SDS011;30019;50.576;8.568;2022-12-20T03:45:47;88.78;;;42.30;;
44304;SDS011;30019;50.576;8.568;2022-12-20T03:48:13;90.78;;;40.65;;
44304;SDS011;30019;50.576;8.568;2022-12-20T03:50:38;78.12;;;38.65;;
44304;SDS011;30019;50.576;8.568;2022-12-20T03:53:05;82.95;;;38.95;;
44304;SDS011;30019;50.576;8.568;2022-12-20T03:55:30;77.85;;;36.88;;
44304;SDS011;30019;50.576;8.568;2022-12-20T03:57:56;66.00;;;33.03;;
44304;SDS011;30019;50.576;8.568;2022-12-20T04:00:22;65.95;;;32.70;;
44304;SDS011;30019;50.576;8.568;2022-12-20T04:02:47;65.22;;;32.20;;
44304;SDS011;30019;50.576;8.568;2022-12-20T04:05:13;64.37;;;31.52;;
44304;SDS011;30019;50.576;8.568;2022-12-20T04:07:40;64.68;;;31.58;;
44304;SDS011;30019;50.576;8.568;2022-12-20T04:10:06;58.58;;;29.20;;
44304;SDS011;30019;50.576;8.568;2022-12-20T04:12:32;59.10;;;28.73;;
44304;SDS011;30019;50.576;8.568;2022-12-20T04:14:57;61.65;;;32.05;;
44304;SDS011;30019;50.576;8.568;2022-12-20T04:17:23;67.35;;;31.25;;
44304;SDS011;30019;50.576;8.568;2022-12-20T04:19:49;54.65;;;29.00;;
44304;SDS011;30019;50.576;8.568;2022-12-20T04:22:14;58.58;;;29.15;;
44304;SDS011;30019;50.576;8.568;2022-12-20T04:24:40;53.30;;;29.27;;
44304;SDS011;30019;50.576;8.568;2022-12-20T04:27:05;55.00;;;29.45;;
44304;SDS011;30019;50.576;8.568;2022-12-20T04:29:31;62.65;;;30.60;;
44304;SDS011;30019;50.576;8.568;2022-12-20T04:31:56;67.03;;;30.50;;
44304;SDS011;30019;50.576;8.568;2022-12-20T04:34:22;55.53;;;29.30;;
44304;SDS011;30019;50.576;8.568;2022-12-20T04:36:47;56.67;;;28.67;;
44304;SDS011;30019;50.576;8.568;2022-12-20T04:39:13;60.67;;;30.70;;
44304;SDS011;30019;50.576;8.568;2022-12-20T04:41:39;58.17;;;29.65;;
44304;SDS011;30019;50.576;8.568;2022-12-20T04:44:04;58.50;;;30.30;;
44304;SDS011;30019;50.576;8.568;2022-12-20T04:46:30;56.92;;;29.33;;
44304;SDS011;30019;50.576;8.568;2022-12-20T04:48:55;62.92;;;32.30;;
44304;SDS011;30019;50.576;8.568;2022-12-20T04:51:21;68.47;;;32.33;;
44304;SDS011;30019;50.576;8.568;2022-12-20T04:53:47;66.12;;;32.38;;
44304;SDS011;30019;50.576;8.568;2022-12-20T04:56:13;72.75;;;34.70;;
44304;SDS011;30019;50.576;8.568;2022-12-20T04:58:39;72.87;;;34.08;;
44304;SDS011;30019;50.576;8.568;2022-12-20T05:01:05;83.53;;;35.58;;
44304;SDS011;30019;50.576;8.568;2022-12-20T05:03:30;74.65;;;35.88;;
44304;SDS011;30019;50.576;8.568;2022-12-20T05:05:56;73.95;;;35.08;;
44304;SDS011;30019;50.576;8.568;2022-12-20T05:08:22;82.20;;;36.65;;
44304;SDS011;30019;50.576;8.568;2022-12-20T05:10:48;92.75;;;37.95;;
44304;SDS011;30019;50.576;8.568;2022-12-20T05:13:13;84.10;;;39.97;;
44304;SDS011;30019;50.576;8.568;2022-12-20T05:15:39;84.20;;;38.05;;
44304;SDS011;30019;50.576;8.568;2022-12-20T05:18:06;77.40;;;35.75;;
44304;SDS011;30019;50.576;8.568;2022-12-20T05:20:32;99.75;;;39.13;;
44304;SDS011;30019;50.576;8.568;2022-12-20T05:22:57;77.35;;;35.42;;
44304;SDS011;30019;50.576;8.568;2022-12-20T05:25:42;66.28;;;32.67;;
44304;SDS011;30019;50.576;8.568;2022-12-20T05:28:30;80.03;;;33.40;;
44304;SDS011;30019;50.576;8.568;2022-12-20T05:30:56;72.82;;;33.00;;
44304;SDS011;30019;50.576;8.568;2022-12-20T05:33:22;68.93;;;31.70;;
44304;SDS011;30019;50.576;8.568;2022-12-20T05:35:47;70.45;;;33.50;;
44304;SDS011;30019;50.576;8.568;2022-12-20T05:38:13;82.62;;;36.40;;
44304;SDS011;30019;50.576;8.568;2022-12-20T05:40:38;84.20;;;35.57;;
44304;SDS011;30019;50.576;8.568;2022-12-20T05:43:05;80.20;;;35.90;;
44304;SDS011;30019;50.576;8.568;2022-12-20T05:45:30;90.95;;;35.83;;
44304;SDS011;30019;50.576;8.568;2022-12-20T05:47:56;83.20;;;37.20;;
44304;SDS011;30019;50.576;8.568;2022-12-20T05:50:22;73.57;;;33.92;;
44304;SDS011;30019;50.576;8.568;2022-12-20T05:52:48;76.97;;;34.53;;
44304;SDS011;30019;50.576;8.568;2022-12-20T05:55:13;71.18;;;31.67;;
44304;SDS011;30019;50.576;8.568;2022-12-20T05:57:39;80.28;;;33.95;;
44304;SDS011;30019;50.576;8.568;2022-12-20T06:00:05;77.25;;;33.30;;
44304;SDS011;30019;50.576;8.568;2022-12-20T06:02:32;91.72;;;35.88;;
44304;SDS011;30019;50.576;8.568;2022-12-20T06:04:57;90.45;;;33.70;;
44304;SDS011;30019;50.576;8.568;2022-12-20T06:07:23;72.47;;;33.53;;
44304;SDS011;30019;50.576;8.568;2022-12-20T06:09:49;79.87;;;35.08;;
44304;SDS011;30019;50.576;8.568;2022-12-20T06:12:15;92.78;;;37.65;;
44304;SDS011;30019;50.576;8.568;2022-12-20T06:14:41;98.45;;;37.85;;
44304;SDS011;30019;50.576;8.568;2022-12-20T06:17:06;100.62;;;40.17;;
44304;SDS011;30019;50.576;8.568;2022-12-20T06:19:32;94.15;;;38.25;;
44304;SDS011;30019;50.576;8.568;2022-12-20T06:21:58;94.43;;;38.38;;
44304;SDS011;30019;50.576;8.568;2022-12-20T06:24:25;98.43;;;38.95;;
44304;SDS011;30019;50.576;8.568;2022-12-20T06:26:51;104.20;;;39.72;;
44304;SDS011;30019;50.576;8.568;2022-12-20T06:29:17;100.10;;;39.53;;
44304;SDS011;30019;50.576;8.568;2022-12-20T06:31:44;101.25;;;41.13;;
44304;SDS011;30019;50.576;8.568;2022-12-20T06:34:10;119.53;;;41.83;;
44304;SDS011;30019;50.576;8.568;2022-12-20T06:36:36;109.75;;;45.35;;
44304;SDS011;30019;50.576;8.568;2022-12-20T06:39:02;113.72;;;42.65;;
44304;SDS011;30019;50.576;8.568;2022-12-20T06:41:28;109.37;;;41.83;;
44304;SDS011;30019;50.576;8.568;2022-12-20T06:43:53;110.68;;;43.95;;
44304;SDS011;30019;50.576;8.568;2022-12-20T06:46:19;106.43;;;43.05;;
44304;SDS011;30019;50.576;8.568;2022-12-20T06:48:44;102.20;;;42.47;;
44304;SDS011;30019;50.576;8.568;2022-12-20T06:51:10;101.28;;;42.65;;
44304;SDS011;30019;50.576;8.568;2022-12-20T06:53:36;98.45;;;42.03;;
44304;SDS011;30019;50.576;8.568;2022-12-20T06:56:02;93.85;;;41.88;;
44304;SDS011;30019;50.576;8.568;2022-12-20T06:58:28;95.12;;;38.97;;
44304;SDS011;30019;50.576;8.568;2022-12-20T07:00:53;94.32;;;38.97;;
44304;SDS011;30019;50.576;8.568;2022-12-20T07:03:19;82.90;;;38.17;;
44304;SDS011;30019;50.576;8.568;2022-12-20T07:05:50;91.65;;;40.12;;
44304;SDS011;30019;50.576;8.568;2022-12-20T07:08:17;97.07;;;39.65;;
44304;SDS011;30019;50.576;8.568;2022-12-20T07:10:43;106.93;;;46.28;;
44304;SDS011;30019;50.576;8.568;2022-12-20T07:13:08;105.60;;;44.40;;
44304;SDS011;30019;50.576;8.568;2022-12-20T07:15:34;113.68;;;45.65;;
44304;SDS011;30019;50.576;8.568;2022-12-20T07:18:00;87.22;;;40.05;;
44304;SDS011;30019;50.576;8.568;2022-12-20T07:20:26;91.47;;;40.42;;
44304;SDS011;30019;50.576;8.568;2022-12-20T07:22:51;83.68;;;38.17;;
44304;SDS011;30019;50.576;8.568;2022-12-20T07:25:17;82.12;;;35.00;;
44304;SDS011;30019;50.576;8.568;2022-12-20T07:27:45;76.05;;;35.67;;
44304;SDS011;30019;50.576;8.568;2022-12-20T07:30:12;60.20;;;31.52;;
44304;SDS011;30019;50.576;8.568;2022-12-20T07:32:38;60.03;;;32.72;;
44304;SDS011;30019;50.576;8.568;2022-12-20T07:35:04;61.37;;;31.00;;
44304;SDS011;30019;50.576;8.568;2022-12-20T07:37:30;60.10;;;29.42;;
44304;SDS011;30019;50.576;8.568;2022-12-20T07:39:55;57.90;;;28.70;;
44304;SDS011;30019;50.576;8.568;2022-12-20T07:42:21;50.75;;;26.73;;
44304;SDS011;30019;50.576;8.568;2022-12-20T07:44:46;49.63;;;26.85;;
44304;SDS011;30019;50.576;8.568;2022-12-20T07:47:12;61.20;;;28.83;;
44304;SDS011;30019;50.576;8.568;2022-12-20T07:49:37;48.35;;;26.90;;
44304;SDS011;30019;50.576;8.568;2022-12-20T07:52:03;53.33;;;27.52;;
44304;SDS011;30019;50.576;8.568;2022-12-20T07:54:31;50.38;;;24.80;;
44304;SDS011;30019;50.576;8.568;2022-12-20T07:57:02;49.70;;;28.00;;
44304;SDS011;30019;50.576;8.568;2022-12-20T07:59:35;46.95;;;26.17;;
44304;SDS011;30019;50.576;8.568;2022-12-20T08:02:05;48.53;;;24.80;;
44304;SDS011;30019;50.576;8.568;2022-12-20T08:04:33;52.92;;;25.12;;
44304;SDS011;30019;50.576;8.568;2022-12-20T08:06:59;60.45;;;23.05;;
44304;SDS011;30019;50.576;8.568;2022-12-20T08:09:26;48.22;;;26.92;;
44304;SDS011;30019;50.576;8.568;2022-12-20T08:11:55;50.28;;;24.35;;
44304;SDS011;30019;50.576;8.568;2022-12-20T08:14:23;50.72;;;26.37;;
44304;SDS011;30019;50.576;8.568;2022-12-20T08:19:17;54.25;;;25.75;;
44304;SDS011;30019;50.576;8.568;2022-12-20T08:21:42;44.65;;;25.30;;
44304;SDS011;30019;50.576;8.568;2022-12-20T08:24:08;46.00;;;25.50;;
44304;SDS011;30019;50.576;8.568;2022-12-20T08:26:37;51.37;;;25.70;;
44304;SDS011;30019;50.576;8.568;2022-12-20T08:29:03;46.30;;;22.85;;
44304;SDS011;30019;50.576;8.568;2022-12-20T08:31:29;45.35;;;23.55;;
44304;SDS011;30019;50.576;8.568;2022-12-20T08:33:55;50.17;;;25.90;;
44304;SDS011;30019;50.576;8.568;2022-12-20T08:36:20;45.42;;;24.67;;
44304;SDS011;30019;50.576;8.568;2022-12-20T08:38:46;48.35;;;25.75;;
44304;SDS011;30019;50.576;8.568;2022-12-20T08:41:12;46.88;;;24.90;;
44304;SDS011;30019;50.576;8.568;2022-12-20T08:43:39;45.30;;;25.08;;
44304;SDS011;30019;50.576;8.568;2022-12-20T08:46:06;46.28;;;25.77;;
44304;SDS011;30019;50.576;8.568;2022-12-20T08:48:33;47.38;;;24.17;;
44304;SDS011;30019;50.576;8.568;2022-12-20T08:50:59;45.30;;;24.65;;
44304;SDS011;30019;50.576;8.568;2022-12-20T08:53:27;46.17;;;24.67;;
44304;SDS011;30019;50.576;8.568;2022-12-20T08:55:54;45.92;;;23.98;;
44304;SDS011;30019;50.576;8.568;2022-12-20T08:58:37;47.47;;;26.15;;
44304;SDS011;30019;50.576;8.568;2022-12-20T09:01:05;46.95;;;25.73;;
44304;SDS011;30019;50.576;8.568;2022-12-20T09:03:32;48.30;;;25.75;;
44304;SDS011;30019;50.576;8.568;2022-12-20T09:05:59;44.75;;;24.75;;
44304;SDS011;30019;50.576;8.568;2022-12-20T09:08:26;43.10;;;24.27;;
44304;SDS011;30019;50.576;8.568;2022-12-20T09:10:52;46.97;;;20.42;;
44304;SDS011;30019;50.576;8.568;2022-12-20T09:13:18;46.05;;;25.27;;
44304;SDS011;30019;50.576;8.568;2022-12-20T09:15:43;39.35;;;22.75;;
44304;SDS011;30019;50.576;8.568;2022-12-20T09:18:09;42.25;;;22.90;;
44304;SDS011;30019;50.576;8.568;2022-12-20T09:20:35;41.92;;;23.12;;
44304;SDS011;30019;50.576;8.568;2022-12-20T09:23:06;45.03;;;23.90;;
44304;SDS011;30019;50.576;8.568;2022-12-20T09:25:31;42.35;;;22.60;;
44304;SDS011;30019;50.576;8.568;2022-12-20T09:27:57;40.88;;;22.95;;
44304;SDS011;30019;50.576;8.568;2022-12-20T09:30:23;38.67;;;21.17;;
44304;SDS011;30019;50.576;8.568;2022-12-20T09:32:49;40.92;;;22.45;;
44304;SDS011;30019;50.576;8.568;2022-12-20T09:35:14;37.92;;;22.98;;
44304;SDS011;30019;50.576;8.568;2022-12-20T09:37:40;36.05;;;21.98;;
44304;SDS011;30019;50.576;8.568;2022-12-20T09:40:06;42.50;;;20.95;;
44304;SDS011;30019;50.576;8.568;2022-12-20T09:42:35;42.03;;;22.40;;
44304;SDS011;30019;50.576;8.568;2022-12-20T09:45:10;38.78;;;21.73;;
44304;SDS011;30019;50.576;8.568;2022-12-20T09:47:49;37.80;;;21.52;;
44304;SDS011;30019;50.576;8.568;2022-12-20T09:50:16;39.95;;;23.27;;
44304;SDS011;30019;50.576;8.568;2022-12-20T09:58:52;38.60;;;22.17;;
44304;SDS011;30019;50.576;8.568;2022-12-20T10:00:54;43.03;;;22.70;;
44304;SDS011;30019;50.576;8.568;2022-12-20T10:03:30;42.20;;;22.13;;
44304;SDS011;30019;50.576;8.568;2022-12-20T10:08:43;35.30;;;21.58;;
44304;SDS011;30019;50.576;8.568;2022-12-20T10:14:06;37.92;;;21.33;;
44304;SDS011;30019;50.576;8.568;2022-12-20T10:16:45;38.55;;;21.65;;
44304;SDS011;30019;50.576;8.568;2022-12-20T10:22:12;34.30;;;18.40;;
44304;SDS011;30019;50.576;8.568;2022-12-20T10:24:54;36.97;;;20.52;;
44304;SDS011;30019;50.576;8.568;2022-12-20T10:27:25;34.25;;;21.65;;
44304;SDS011;30019;50.576;8.568;2022-12-20T10:29:51;35.08;;;20.35;;
44304;SDS011;30019;50.576;8.568;2022-12-20T10:32:21;32.33;;;20.00;;
44304;SDS011;30019;50.576;8.568;2022-12-20T10:34:50;37.30;;;21.45;;
44304;SDS011;30019;50.576;8.568;2022-12-20T10:37:21;25.73;;;14.93;;
44304;SDS011;30019;50.576;8.568;2022-12-20T10:39:47;33.53;;;19.98;;
44304;SDS011;30019;50.576;8.568;2022-12-20T10:44:51;35.42;;;19.92;;
44304;SDS011;30019;50.576;8.568;2022-12-20T10:47:37;39.00;;;20.35;;
44304;SDS011;30019;50.576;8.568;2022-12-20T10:50:17;32.67;;;20.27;;
44304;SDS011;30019;50.576;8.568;2022-12-20T10:52:45;31.12;;;19.75;;
44304;SDS011;30019;50.576;8.568;2022-12-20T10:55:38;32.38;;;18.87;;
44304;SDS011;30019;50.576;8.568;2022-12-20T10:58:30;36.60;;;19.87;;
44304;SDS011;30019;50.576;8.568;2022-12-20T11:03:48;32.80;;;19.55;;
44304;SDS011;30019;50.576;8.568;2022-12-20T11:06:15;32.30;;;19.80;;
44304;SDS011;30019;50.576;8.568;2022-12-20T11:08:42;33.58;;;20.73;;
44304;SDS011;30019;50.576;8.568;2022-12-20T11:11:18;33.08;;;19.85;;
44304;SDS011;30019;50.576;8.568;2022-12-20T11:13:46;33.33;;;19.62;;
44304;SDS011;30019;50.576;8.568;2022-12-20T11:21:58;34.97;;;19.80;;
44304;SDS011;30019;50.576;8.568;2022-12-20T11:32:29;30.17;;;17.95;;
44304;SDS011;30019;50.576;8.568;2022-12-20T11:35:18;33.80;;;20.20;;
44304;SDS011;30019;50.576;8.568;2022-12-20T11:40:21;32.33;;;18.85;;
44304;SDS011;30019;50.576;8.568;2022-12-20T11:43:39;31.83;;;19.60;;
44304;SDS011;30019;50.576;8.568;2022-12-20T11:54:40;30.48;;;18.33;;
44304;SDS011;30019;50.576;8.568;2022-12-20T11:59:59;29.92;;;17.58;;
44304;SDS011;30019;50.576;8.568;2022-12-20T12:02:34;27.60;;;17.10;;
44304;SDS011;30019;50.576;8.568;2022-12-20T12:05:06;33.70;;;19.52;;
44304;SDS011;30019;50.576;8.568;2022-12-20T12:07:48;30.00;;;18.42;;
44304;SDS011;30019;50.576;8.568;2022-12-20T12:10:39;29.65;;;18.00;;
44304;SDS011;30019;50.576;8.568;2022-12-20T12:15:45;34.20;;;18.17;;
44304;SDS011;30019;50.576;8.568;2022-12-20T12:18:34;34.17;;;18.83;;
44304;SDS011;30019;50.576;8.568;2022-12-20T12:26:16;28.98;;;17.98;;
44304;SDS011;30019;50.576;8.568;2022-12-20T12:28:57;32.58;;;18.58;;
44304;SDS011;30019;50.576;8.568;2022-12-20T12:31:35;29.00;;;17.15;;
44304;SDS011;30019;50.576;8.568;2022-12-20T12:47:18;32.88;;;18.77;;
44304;SDS011;30019;50.576;8.568;2022-12-20T12:49:49;28.83;;;17.90;;
44304;SDS011;30019;50.576;8.568;2022-12-20T12:52:36;29.08;;;18.08;;
44304;SDS011;30019;50.576;8.568;2022-12-20T12:55:53;30.98;;;18.33;;
44304;SDS011;30019;50.576;8.568;2022-12-20T13:03:34;31.87;;;17.62;;
44304;SDS011;30019;50.576;8.568;2022-12-20T13:09:19;27.67;;;17.35;;
44304;SDS011;30019;50.576;8.568;2022-12-20T13:11:45;32.13;;;17.33;;
44304;SDS011;30019;50.576;8.568;2022-12-20T13:16:46;30.05;;;18.15;;
44304;SDS011;30019;50.576;8.568;2022-12-20T13:19:13;30.85;;;18.30;;
44304;SDS011;30019;50.576;8.568;2022-12-20T13:21:42;27.55;;;17.45;;
44304;SDS011;30019;50.576;8.568;2022-12-20T13:27:55;30.70;;;18.17;;
44304;SDS011;30019;50.576;8.568;2022-12-20T13:37:55;56.63;;;19.30;;
44304;SDS011;30019;50.576;8.568;2022-12-20T13:40:39;32.72;;;17.25;;
44304;SDS011;30019;50.576;8.568;2022-12-20T13:45:53;27.42;;;16.62;;
44304;SDS011;30019;50.576;8.568;2022-12-20T13:48:34;25.35;;;16.50;;
44304;SDS011;30019;50.576;8.568;2022-12-20T13:51:06;28.08;;;15.82;;
44304;SDS011;30019;50.576;8.568;2022-12-20T13:53:33;30.40;;;16.87;;
44304;SDS011;30019;50.576;8.568;2022-12-20T13:55:59;27.85;;;17.42;;
44304;SDS011;30019;50.576;8.568;2022-12-20T13:58:52;27.33;;;16.58;;
44304;SDS011;30019;50.576;8.568;2022-12-20T14:01:22;26.77;;;17.37;;
44304;SDS011;30019;50.576;8.568;2022-12-20T14:03:49;27.08;;;16.65;;
44304;SDS011;30019;50.576;8.568;2022-12-20T14:06:17;28.55;;;16.95;;
44304;SDS011;30019;50.576;8.568;2022-12-20T14:08:45;30.60;;;17.45;;
44304;SDS011;30019;50.576;8.568;2022-12-20T14:11:17;27.10;;;17.23;;
44304;SDS011;30019;50.576;8.568;2022-12-20T14:13:59;38.97;;;17.75;;
44304;SDS011;30019;50.576;8.568;2022-12-20T14:16:29;26.80;;;16.92;;
44304;SDS011;30019;50.576;8.568;2022-12-20T14:21:22;27.73;;;17.35;;
44304;SDS011;30019;50.576;8.568;2022-12-20T14:23:49;28.38;;;16.08;;
44304;SDS011;30019;50.576;8.568;2022-12-20T14:26:23;30.37;;;17.20;;
44304;SDS011;30019;50.576;8.568;2022-12-20T14:28:51;25.52;;;16.30;;
44304;SDS011;30019;50.576;8.568;2022-12-20T14:36:27;20.12;;;11.95;;
44304;SDS011;30019;50.576;8.568;2022-12-20T14:38:54;30.42;;;16.83;;
44304;SDS011;30019;50.576;8.568;2022-12-20T14:41:36;26.62;;;16.05;;
44304;SDS011;30019;50.576;8.568;2022-12-20T14:46:48;31.10;;;16.42;;
44304;SDS011;30019;50.576;8.568;2022-12-20T14:51:47;29.70;;;17.10;;
44304;SDS011;30019;50.576;8.568;2022-12-20T14:56:44;28.23;;;17.23;;
44304;SDS011;30019;50.576;8.568;2022-12-20T14:59:14;29.37;;;17.95;;
44304;SDS011;30019;50.576;8.568;2022-12-20T15:01:42;29.10;;;18.15;;
44304;SDS011;30019;50.576;8.568;2022-12-20T15:04:24;29.90;;;18.12;;
44304;SDS011;30019;50.576;8.568;2022-12-20T15:06:58;32.13;;;18.45;;
44304;SDS011;30019;50.576;8.568;2022-12-20T15:09:26;34.83;;;18.23;;
44304;SDS011;30019;50.576;8.568;2022-12-20T15:11:52;30.30;;;17.17;;
44304;SDS011;30019;50.576;8.568;2022-12-20T15:14:26;28.45;;;17.62;;
44304;SDS011;30019;50.576;8.568;2022-12-20T15:17:00;27.20;;;18.12;;
44304;SDS011;30019;50.576;8.568;2022-12-20T15:19:28;31.02;;;17.90;;
44304;SDS011;30019;50.576;8.568;2022-12-20T15:21:55;29.67;;;18.05;;
44304;SDS011;30019;50.576;8.568;2022-12-20T15:24:22;28.95;;;18.08;;
44304;SDS011;30019;50.576;8.568;2022-12-20T15:26:50;27.92;;;17.10;;
44304;SDS011;30019;50.576;8.568;2022-12-20T15:29:17;26.52;;;16.90;;
44304;SDS011;30019;50.576;8.568;2022-12-20T15:31:47;30.48;;;16.98;;
44304;SDS011;30019;50.576;8.568;2022-12-20T15:34:36;29.90;;;17.12;;
44304;SDS011;30019;50.576;8.568;2022-12-20T15:37:02;30.15;;;17.55;;
44304;SDS011;30019;50.576;8.568;2022-12-20T15:39:29;28.70;;;17.75;;
44304;SDS011;30019;50.576;8.568;2022-12-20T15:41:55;26.12;;;16.12;;
44304;SDS011;30019;50.576;8.568;2022-12-20T15:44:25;29.23;;;17.85;;
44304;SDS011;30019;50.576;8.568;2022-12-20T15:46:52;34.90;;;17.85;;
44304;SDS011;30019;50.576;8.568;2022-12-20T15:49:19;34.88;;;19.12;;
44304;SDS011;30019;50.576;8.568;2022-12-20T15:51:47;27.80;;;17.80;;
44304;SDS011;30019;50.576;8.568;2022-12-20T15:54:22;31.25;;;17.75;;
44304;SDS011;30019;50.576;8.568;2022-12-20T15:56:51;29.05;;;18.27;;
44304;SDS011;30019;50.576;8.568;2022-12-20T15:59:17;29.55;;;19.02;;
44304;SDS011;30019;50.576;8.568;2022-12-20T16:01:43;31.80;;;19.37;;
44304;SDS011;30019;50.576;8.568;2022-12-20T16:04:12;29.55;;;18.73;;
44304;SDS011;30019;50.576;8.568;2022-12-20T16:06:42;35.13;;;18.15;;
44304;SDS011;30019;50.576;8.568;2022-12-20T16:09:09;38.17;;;18.58;;
44304;SDS011;30019;50.576;8.568;2022-12-20T16:11:35;27.55;;;18.02;;
44304;SDS011;30019;50.576;8.568;2022-12-20T16:14:01;33.17;;;18.87;;
44304;SDS011;30019;50.576;8.568;2022-12-20T16:16:28;30.40;;;19.62;;
44304;SDS011;30019;50.576;8.568;2022-12-20T16:18:55;43.65;;;21.77;;
44304;SDS011;30019;50.576;8.568;2022-12-20T16:21:26;41.95;;;22.60;;
44304;SDS011;30019;50.576;8.568;2022-12-20T16:23:55;37.88;;;22.85;;
44304;SDS011;30019;50.576;8.568;2022-12-20T16:26:21;37.67;;;22.42;;
44304;SDS011;30019;50.576;8.568;2022-12-20T16:28:48;35.30;;;20.62;;
44304;SDS011;30019;50.576;8.568;2022-12-20T16:33:43;37.45;;;21.67;;
44304;SDS011;30019;50.576;8.568;2022-12-20T16:36:10;32.42;;;21.65;;
44304;SDS011;30019;50.576;8.568;2022-12-20T16:38:36;43.80;;;22.67;;
44304;SDS011;30019;50.576;8.568;2022-12-20T16:41:11;40.17;;;22.08;;
44304;SDS011;30019;50.576;8.568;2022-12-20T16:43:37;38.58;;;22.62;;
44304;SDS011;30019;50.576;8.568;2022-12-20T16:46:03;40.60;;;22.98;;